Time;durP1;ratioP1;P1;durP2;ratioP2;P2;SDS_P1;SDS_P2;PMS_P1;PMS_P2;Temp;Humidity;BMP_temperature;BMP_pressure;BME280_temperature;BME280_humidity;BME280_pressure;Samples;Min_cycle;Max_cycle;Signal;HPM_P1;HPM_P2
2022/08/05 00:01:32;;;;;;;3.83;3.40;;;;;;;23.76;48.79;99876.41;4422894;32;32751;-85
2022/08/05 00:04:04;;;;;;;3.42;3.08;;;;;;;23.98;48.00;99880.56;4425314;32;32752;-85
2022/08/05 00:06:35;;;;;;;2.97;2.65;;;;;;;23.82;48.46;99868.72;4423753;32;33893;-85
2022/08/05 00:09:03;;;;;;;6.60;2.95;;;;;;;23.72;48.92;99869.63;4411255;32;31387;-85
2022/08/05 00:11:39;;;;;;;3.72;3.08;;;;;;;23.95;47.87;99866.53;4424808;32;34207;-86
2022/08/05 00:14:21;;;;;;;;;;;;;;;23.74;48.53;99870.34;4413767;32;32394;-86
2022/08/05 00:16:56;;;;;;;4.62;2.97;;;;;;;23.84;47.57;99867.59;4426253;32;32810;-85
2022/08/05 00:19:24;;;;;;;3.67;3.28;;;;;;;23.87;47.51;99866.41;4413672;32;33338;-86
2022/08/05 00:22:01;;;;;;;2.70;2.50;;;;;;;23.61;48.91;99867.09;4423102;32;32939;-85
2022/08/05 00:24:30;;;;;;;4.68;2.80;;;;;;;23.68;48.23;99865.50;4426055;32;33435;-85
2022/08/05 00:26:59;;;;;;;6.37;3.50;;;;;;;23.61;48.23;99861.69;4423933;32;34336;-85
2022/08/05 00:29:27;;;;;;;2.92;2.70;;;;;;;23.52;48.72;99862.59;4421193;32;101913;-85
2022/08/05 00:32:05;;;;;;;3.25;2.75;;;;;;;23.62;47.98;99865.25;4424906;32;33807;-85
2022/08/05 00:34:44;;;;;;;4.47;2.55;;;;;;;23.40;48.71;99869.16;4424698;32;32591;-86
2022/08/05 00:37:33;;;;;;;3.00;2.70;;;;;;;23.55;47.32;99873.09;4410098;32;33211;-85
2022/08/05 00:40:20;;;;;;;4.82;2.80;;;;;;;23.37;48.45;99864.06;4437688;32;33721;-85
2022/08/05 00:42:56;;;;;;;2.58;2.37;;;;;;;23.46;48.20;99860.50;4424151;32;33820;-85
2022/08/05 00:45:24;;;;;;;6.00;3.00;;;;;;;23.51;47.37;99860.91;4423691;32;33872;-85
2022/08/05 00:48:07;;;;;;;3.65;2.47;;;;;;;23.38;48.21;99865.78;4424980;32;33799;-85
2022/08/05 00:50:49;;;;;;;6.60;2.90;;;;;;;23.49;47.24;99857.50;4411904;32;32105;-85
2022/08/05 00:53:20;;;;;;;5.47;2.53;;;;;;;23.57;47.42;99860.28;4424166;32;32808;-85
2022/08/05 00:56:08;;;;;;;3.62;2.62;;;;;;;23.56;47.33;99857.75;4425534;32;33466;-86
2022/08/05 00:58:40;;;;;;;4.45;2.87;;;;;;;23.30;47.92;99857.56;4423622;32;34560;-85
2022/08/05 01:01:11;;;;;;;2.55;2.25;;;;;;;23.55;47.08;99851.53;4398075;32;33081;-86
2022/08/05 01:03:41;;;;;;;3.83;2.50;;;;;;;23.35;47.65;99860.66;4423337;32;33907;-86
2022/08/05 01:06:10;;;;;;;3.05;2.75;;;;;;;23.35;47.65;99849.88;4410401;32;33894;-85
2022/08/05 01:08:42;;;;;;;3.03;1.95;;;;;;;23.11;48.80;99859.31;4424502;32;33541;-86
2022/08/05 01:11:21;;;;;;;2.87;2.60;;;;;;;23.36;48.14;99854.28;4425524;32;34422;-86
2022/08/05 01:14:35;;;;;;;3.12;2.35;;;;;;;23.65;46.92;99849.66;4426768;32;33617;-86
2022/08/05 01:17:06;;;;;;;3.00;2.70;;;;;;;23.16;48.28;99857.03;4420273;32;32744;-85
2022/08/05 01:19:52;;;;;;;5.62;2.10;;;;;;;23.05;48.60;99857.22;4425389;32;34622;-86
2022/08/05 01:22:44;;;;;;;2.78;2.53;;;;;;;23.50;47.11;99851.97;4426704;32;33011;-85
2022/08/05 01:25:23;;;;;;;2.65;2.15;;;;;;;22.79;49.22;99856.97;4424102;32;32562;-85
2022/08/05 01:28:20;;;;;;;4.85;1.92;;;;;;;23.23;46.88;99849.22;4423694;32;33649;-86
2022/08/05 01:31:16;;;;;;;3.22;2.12;;;;;;;23.23;46.76;99842.00;4439582;32;34603;-85
2022/08/05 01:34:01;;;;;;;2.67;2.40;;;;;;;23.07;47.12;99857.06;4439272;32;33792;-86
2022/08/05 01:36:33;;;;;;;2.80;2.58;;;;;;;23.21;46.25;99843.97;4429320;32;33054;-86
2022/08/05 01:39:11;;;;;;;4.12;2.40;;;;;;;23.23;46.36;99852.78;4426466;32;34394;-86
2022/08/05 01:41:41;;;;;;;3.85;1.92;;;;;;;23.09;46.70;99853.25;4425229;32;35424;-86
2022/08/05 01:44:13;;;;;;;3.50;2.43;;;;;;;23.55;45.92;99851.53;4425761;32;34453;-85
2022/08/05 01:46:43;;;;;;;2.30;2.10;;;;;;;23.23;46.99;99863.53;4420526;32;34514;-86
2022/08/05 01:49:20;;;;;;;4.45;2.70;;;;;;;23.24;46.68;99850.94;4424865;32;33800;-86
2022/08/05 01:52:01;;;;;;;2.80;2.60;;;;;;;22.99;47.35;99861.34;4425238;32;33516;-85
2022/08/05 01:54:48;;;;;;;3.37;1.90;;;;;;;23.00;47.42;99863.03;4427518;32;33983;-86
2022/08/05 01:57:25;;;;;;;2.22;2.00;;;;;;;23.29;47.05;99861.25;4425178;32;34014;-86
2022/08/05 02:00:12;;;;;;;2.80;2.10;;;;;;;23.02;47.65;99868.28;4424941;32;32354;-85
2022/08/05 02:02:48;;;;;;;2.15;1.87;;;;;;;22.81;48.33;99862.19;4412230;32;34019;-85
2022/08/05 02:05:25;;;;;;;2.72;2.50;;;;;;;22.73;48.38;99860.22;4412291;32;33398;-85
2022/08/05 02:07:57;;;;;;;3.17;2.28;;;;;;;22.89;47.92;99856.97;4412402;32;32728;-86
2022/08/05 02:10:34;;;;;;;2.42;2.15;;;;;;;22.89;48.04;99846.22;4413062;32;33389;-85
2022/08/05 02:13:16;;;;;;;4.07;2.47;;;;;;;22.61;49.25;99850.59;4425129;32;33586;-85
2022/08/05 02:15:50;;;;;;;3.10;2.40;;;;;;;22.75;48.49;99858.25;4424712;32;32778;-85
2022/08/05 02:18:23;;;;;;;4.97;2.70;;;;;;;22.83;47.91;99858.34;4408754;32;33707;-86
2022/08/05 02:21:07;;;;;;;4.53;2.28;;;;;;;22.81;48.48;99849.59;4413260;32;33342;-85
2022/08/05 02:23:45;;;;;;;9.20;2.25;;;;;;;22.64;48.85;99845.75;4437500;32;33908;-86
2022/08/05 02:26:18;;;;;;;;;;;;;;;22.80;48.18;99847.87;4412308;32;32445;-86
2022/08/05 02:28:49;;;;;;;4.43;2.90;;;;;;;22.86;48.68;99855.38;4424769;32;34206;-85
2022/08/05 02:31:21;;;;;;;5.07;2.10;;;;;;;22.61;49.24;99851.44;4425077;32;32565;-85
2022/08/05 02:33:51;;;;;;;2.15;2.00;;;;;;;22.56;49.38;99847.50;4424495;32;33948;-85
2022/08/05 02:36:24;;;;;;;2.50;2.30;;;;;;;22.63;49.07;99852.12;4420751;32;34750;-85
2022/08/05 02:38:59;;;;;;;3.80;2.42;;;;;;;22.77;48.76;99850.00;4421690;32;33494;-86
2022/08/05 02:41:27;;;;;;;3.60;2.45;;;;;;;22.78;49.21;99846.31;4412221;32;33094;-85
2022/08/05 02:44:16;;;;;;;6.37;2.67;;;;;;;22.84;49.32;99848.47;4419711;32;33175;-85
2022/08/05 02:46:47;;;;;;;6.10;2.50;;;;;;;22.78;49.21;99851.69;4424951;32;34200;-86
2022/08/05 02:49:31;;;;;;;3.33;2.77;;;;;;;22.85;49.14;99851.00;4426440;32;33514;-85
2022/08/05 02:52:14;;;;;;;3.58;3.15;;;;;;;22.91;48.89;99845.06;4411944;32;31862;-85
2022/08/05 02:54:58;;;;;;;4.40;2.70;;;;;;;22.72;49.91;99851.28;4426758;32;33859;-85
2022/08/05 02:57:34;;;;;;;3.97;3.03;;;;;;;22.58;50.22;99851.72;4425770;32;32136;-85
2022/08/05 03:00:22;;;;;;;11.35;2.92;;;;;;;22.54;50.30;99849.47;4426419;32;33160;-85
2022/08/05 03:02:54;;;;;;;4.30;2.40;;;;;;;22.60;50.18;99846.19;4423587;32;32196;-85
2022/08/05 03:05:22;;;;;;;3.17;2.60;;;;;;;22.60;50.20;99839.00;4411439;32;33841;-85
2022/08/05 03:08:11;;;;;;;5.60;3.20;;;;;;;22.63;49.83;99836.00;4407897;32;33901;-85
2022/08/05 03:10:47;;;;;;;2.97;2.78;;;;;;;22.63;49.78;99844.06;4424688;32;32847;-85
2022/08/05 03:13:38;;;;;;;2.97;2.75;;;;;;;22.60;49.84;99839.00;4427415;32;33407;-85
2022/08/05 03:16:26;;;;;;;6.57;2.60;;;;;;;22.47;50.33;99833.03;4424825;32;34652;-86
2022/08/05 03:18:54;;;;;;;3.35;3.05;;;;;;;22.42;50.39;99829.94;4424037;32;32990;-85
2022/08/05 03:21:22;;;;;;;2.97;2.65;;;;;;;22.43;50.36;99831.63;4424530;32;33677;-85
2022/08/05 03:23:56;;;;;;;3.05;2.72;;;;;;;22.44;50.41;99828.78;4426453;32;33527;-85
2022/08/05 03:26:24;;;;;;;5.07;3.25;;;;;;;22.33;51.73;99828.09;4438611;32;32607;-86
2022/08/05 03:28:59;;;;;;;3.62;2.87;;;;;;;22.34;51.79;99827.09;4436262;32;34372;-85
2022/08/05 03:31:28;;;;;;;5.30;3.12;;;;;;;22.31;51.75;99828.22;4424047;32;34394;-85
2022/08/05 03:34:16;;;;;;;6.90;3.00;;;;;;;22.32;51.88;99823.72;4424497;32;31633;-86
2022/08/05 03:36:44;;;;;;;4.35;3.00;;;;;;;22.32;52.42;99824.56;4409503;32;33405;-86
2022/08/05 03:39:13;;;;;;;7.00;3.15;;;;;;;22.41;52.42;99828.25;4411575;32;33270;-85
2022/08/05 03:41:54;;;;;;;4.50;2.78;;;;;;;22.33;52.50;99828.09;4410735;32;34187;-85
2022/08/05 03:44:24;;;;;;;7.12;3.28;;;;;;;22.28;52.30;99819.59;4408783;32;35476;-85
2022/08/05 03:46:55;;;;;;;5.75;3.05;;;;;;;22.18;52.83;99825.81;4409658;32;33631;-86
2022/08/05 03:49:24;;;;;;;4.45;2.53;;;;;;;22.11;53.24;99824.66;4408618;32;33772;-85
2022/08/05 03:52:20;;;;;;;3.22;2.90;;;;;;;22.16;52.83;99825.09;4408194;32;32782;-85
2022/08/05 03:55:11;;;;;;;13.18;3.58;;;;;;;22.24;52.47;99824.41;4411205;32;32777;-86
2022/08/05 03:58:00;;;;;;;4.70;3.57;;;;;;;22.17;52.71;99825.94;4394311;32;33614;-85
2022/08/05 04:00:31;;;;;;;3.78;3.35;;;;;;;22.22;52.98;99823.72;4408717;32;33505;-85
2022/08/05 04:03:01;;;;;;;4.07;3.28;;;;;;;22.11;53.30;99826.47;4410808;32;32282;-85
2022/08/05 04:05:32;;;;;;;8.02;3.53;;;;;;;22.29;53.02;99830.22;4422230;32;34010;-85
2022/08/05 04:08:06;;;;;;;3.97;3.22;;;;;;;22.20;53.97;99829.22;4415278;32;33334;-86
2022/08/05 04:10:57;;;;;;;4.22;3.70;;;;;;;22.43;53.01;99834.31;4406489;32;34009;-85
2022/08/05 04:13:25;;;;;;;17.42;4.07;;;;;;;22.55;53.03;99832.31;4408658;32;34121;-86
2022/08/05 04:16:13;;;;;;;3.95;3.47;;;;;;;22.58;53.22;99832.87;4409076;32;32289;-86
2022/08/05 04:18:44;;;;;;;5.12;3.83;;;;;;;22.44;53.51;99830.63;4406587;32;34671;-86
2022/08/05 04:21:13;;;;;;;7.07;3.50;;;;;;;22.65;52.85;99825.94;4415532;32;32729;-85
2022/08/05 04:24:03;;;;;;;6.53;3.30;;;;;;;22.81;52.14;99824.50;4411301;32;33848;-86
2022/08/05 04:26:35;;;;;;;4.93;3.60;;;;;;;22.90;51.71;99829.06;4410035;32;32303;-85
2022/08/05 04:29:03;;;;;;;5.62;3.55;;;;;;;22.97;50.35;99825.63;4410920;32;34698;-85
2022/08/05 04:31:33;;;;;;;5.50;3.37;;;;;;;23.01;50.92;99820.78;4409166;32;33926;-86
2022/08/05 04:34:06;;;;;;;8.93;3.53;;;;;;;22.99;50.83;99818.25;4412980;32;32688;-86
2022/08/05 04:37:00;;;;;;;9.40;3.10;;;;;;;23.13;49.97;99819.63;4427370;32;32931;-85
2022/08/05 04:39:30;;;;;;;7.03;3.25;;;;;;;23.23;49.51;99823.13;4424494;32;33723;-85
2022/08/05 04:42:03;;;;;;;4.95;4.18;;;;;;;23.01;50.36;99823.50;4411886;32;35285;-86
2022/08/05 04:44:31;;;;;;;6.78;3.35;;;;;;;23.11;50.78;99823.47;4410109;32;32901;-86
2022/08/05 04:47:00;;;;;;;6.28;3.22;;;;;;;23.31;49.33;99824.22;4436834;32;32745;-85
2022/08/05 04:49:38;;;;;;;9.10;3.33;;;;;;;23.50;48.35;99821.47;4425112;32;34030;-86
2022/08/05 04:52:33;;;;;;;;;;;;;;;23.67;48.46;99827.94;4414158;32;33117;-86
2022/08/05 04:55:02;;;;;;;4.70;3.07;;;;;;;24.03;47.37;99823.47;4433674;32;33218;-86
2022/08/05 04:57:44;;;;;;;6.30;3.35;;;;;;;24.01;47.41;99820.06;4423099;32;32599;-86
2022/08/05 05:00:18;;;;;;;3.53;3.15;;;;;;;24.21;47.04;99816.22;4411619;32;32757;-86
2022/08/05 05:02:50;;;;;;;5.30;3.17;;;;;;;24.38;46.84;99822.66;4426834;32;33170;-86
2022/08/05 05:05:19;;;;;;;4.05;3.58;;;;;;;24.73;45.80;99820.88;4422888;32;34628;-86
2022/08/05 05:08:01;;;;;;;5.10;3.30;;;;;;;25.02;44.51;99821.47;4424142;32;33996;-86
2022/08/05 05:10:31;;;;;;;6.90;2.97;;;;;;;25.21;44.78;99809.59;4429407;32;33712;-86
2022/08/05 05:13:00;;;;;;;4.43;3.17;;;;;;;25.37;43.55;99810.69;4423231;32;34000;-86
2022/08/05 05:15:31;;;;;;;7.72;3.05;;;;;;;25.86;41.82;99808.19;4433174;32;33958;-86
2022/08/05 05:18:19;;;;;;;9.35;3.00;;;;;;;25.61;42.22;99810.78;4434880;32;33230;-86
2022/08/05 05:21:03;;;;;;;3.70;3.40;;;;;;;25.81;41.50;99807.84;4422570;32;33602;-86
2022/08/05 05:23:33;;;;;;;3.10;2.70;;;;;;;25.50;42.53;99811.09;4422404;32;33682;-86
2022/08/05 05:26:22;;;;;;;4.93;3.40;;;;;;;25.83;41.90;99814.78;4432781;32;32766;-86
2022/08/05 05:29:03;;;;;;;3.28;2.97;;;;;;;26.07;41.15;99807.75;4424381;32;33181;-86
2022/08/05 05:31:41;;;;;;;4.53;2.90;;;;;;;26.32;39.89;99809.47;4411547;32;32736;-86
2022/08/05 05:34:12;;;;;;;6.43;3.22;;;;;;;26.33;40.56;99810.31;4412166;32;33607;-86
2022/08/05 05:36:42;;;;;;;10.02;2.90;;;;;;;26.36;40.33;99805.41;4444372;32;33372;-85
2022/08/05 05:39:13;;;;;;;5.75;2.97;;;;;;;26.66;40.21;99809.31;4438533;32;32953;-86
2022/08/05 05:41:46;;;;;;;4.80;3.17;;;;;;;26.30;39.65;99808.75;4443897;32;33857;-85
2022/08/05 05:44:21;;;;;;;5.25;3.33;;;;;;;26.53;39.88;99806.25;4426926;32;34818;-86
2022/08/05 05:47:05;;;;;;;6.32;3.22;;;;;;;27.14;38.60;99798.59;4440550;32;33852;-86
2022/08/05 05:49:50;;;;;;;5.25;2.75;;;;;;;27.29;38.29;99803.09;4416787;32;32380;-85
2022/08/05 05:52:25;;;;;;;8.43;2.72;;;;;;;27.41;38.71;99800.88;4438287;32;33134;-85
2022/08/05 05:55:02;;;;;;;9.82;2.90;;;;;;;27.41;38.78;99792.75;4440127;32;33451;-85
2022/08/05 05:57:46;;;;;;;9.77;3.22;;;;;;;27.42;38.68;99790.88;4428503;32;33783;-85
2022/08/05 06:00:21;;;;;;;8.90;2.65;;;;;;;27.74;38.20;99796.19;4438221;32;33285;-85
2022/08/05 06:03:02;;;;;;;5.97;2.60;;;;;;;27.49;38.45;99792.72;4437170;32;33585;-85
2022/08/05 06:05:50;;;;;;;6.68;2.78;;;;;;;27.87;37.48;99787.47;4442534;32;33850;-85
2022/08/05 06:08:26;;;;;;;5.87;2.40;;;;;;;27.80;37.42;99792.75;4428311;32;34208;-85
2022/08/05 06:11:05;;;;;;;4.97;2.62;;;;;;;27.90;36.87;99794.41;4447777;32;35101;-85
2022/08/05 06:16:22;;;;;;;7.03;3.30;;;;;;;28.28;37.44;99793.44;4442562;32;33675;-85
2022/08/05 06:19:00;;;;;;;4.43;2.87;;;;;;;28.27;36.00;99789.03;4440712;32;33455;-85
2022/08/05 06:21:35;;;;;;;5.80;2.22;;;;;;;28.37;36.20;99791.53;4440950;32;34446;-85
2022/08/05 06:24:11;;;;;;;4.07;2.87;;;;;;;28.50;35.85;99796.38;4428620;32;33941;-85
2022/08/05 06:26:41;;;;;;;5.72;3.00;;;;;;;28.83;34.83;99796.91;4440643;32;34028;-85
2022/08/05 06:29:20;;;;;;;6.93;3.00;;;;;;;28.77;34.95;99787.63;4427613;32;33727;-85
2022/08/05 06:32:10;;;;;;;7.62;2.92;;;;;;;28.71;35.46;99799.22;4439973;32;32493;-85
2022/08/05 06:34:57;;;;;;;8.50;2.55;;;;;;;28.57;36.26;99792.72;4438658;32;32446;-85
2022/08/05 06:37:33;;;;;;;3.03;2.20;;;;;;;28.92;33.18;99789.53;4441724;32;34094;-85
2022/08/05 06:40:32;;;;;;;6.62;2.60;;;;;;;29.10;33.22;99787.28;4443451;32;33161;-85
2022/08/05 06:43:01;;;;;;;5.97;2.40;;;;;;;29.29;32.20;99781.31;4439676;32;33321;-85
2022/08/05 06:45:31;;;;;;;6.93;2.65;;;;;;;29.34;31.96;99784.31;4441915;32;33524;-85
2022/08/05 06:48:19;;;;;;;3.75;2.17;;;;;;;29.58;32.98;99788.63;4442714;32;33224;-85
2022/08/05 06:51:07;;;;;;;11.65;2.20;;;;;;;30.01;30.95;99782.44;4440132;32;33833;-85
2022/08/05 06:53:49;;;;;;;;;;;;;;;29.96;32.67;99793.03;4442521;32;34351;-85
2022/08/05 06:56:21;;;;;;;2.75;1.75;;;;;;;29.82;30.50;99784.72;4454019;32;34065;-86
2022/08/05 06:58:55;;;;;;;7.60;2.65;;;;;;;30.11;30.68;99793.84;4440763;32;33990;-86
2022/08/05 07:01:25;;;;;;;4.72;2.05;;;;;;;30.42;30.23;99787.25;4435822;32;33201;-85
2022/08/05 07:04:01;;;;;;;5.30;2.20;;;;;;;30.25;28.14;99781.22;4424646;32;33339;-85
2022/08/05 07:06:36;;;;;;;6.70;1.87;;;;;;;30.77;29.03;99786.31;4440483;32;34903;-85
2022/08/05 07:09:06;;;;;;;2.03;1.60;;;;;;;30.38;27.97;99791.38;4427856;32;35148;-85
2022/08/05 07:11:34;;;;;;;3.35;1.90;;;;;;;30.35;28.81;99793.47;4440706;32;33597;-85
2022/08/05 07:16:59;;;;;;;3.28;1.98;;;;;;;30.71;27.33;99800.72;4442808;32;33911;-85
2022/08/05 07:19:53;;;;;;;2.73;2.00;;;;;;;30.72;28.22;99796.97;4419645;32;33951;-85
2022/08/05 07:22:42;;;;;;;2.45;2.08;;;;;;;31.37;27.15;99793.00;4438102;32;33737;-85
2022/08/05 07:25:15;;;;;;;3.97;2.40;;;;;;;31.39;27.03;99789.25;4415057;32;32234;-85
2022/08/05 07:28:05;;;;;;;3.70;1.83;;;;;;;31.16;26.75;99801.28;4442380;32;33857;-85
2022/08/05 07:30:40;;;;;;;7.07;2.33;;;;;;;31.01;27.50;99793.19;4440619;32;33610;-85
2022/08/05 07:33:11;;;;;;;2.00;1.80;;;;;;;31.24;27.69;99786.59;4440548;32;33504;-85
2022/08/05 07:35:47;;;;;;;8.65;2.10;;;;;;;31.73;27.19;99786.47;4440333;32;33889;-85
2022/08/05 07:41:16;;;;;;;;;;;;;;;32.35;27.86;99774.44;4439279;32;34891;-85
2022/08/05 07:44:08;;;;;;;5.87;2.33;;;;;;;31.95;28.04;99772.69;4439997;32;34070;-85
2022/08/05 07:46:49;;;;;;;4.45;1.95;;;;;;;32.17;26.18;99768.75;4437897;32;32186;-85
2022/08/05 07:49:20;;;;;;;5.28;1.77;;;;;;;32.25;25.84;99768.53;4440354;32;33137;-85
2022/08/05 07:51:51;;;;;;;4.87;2.25;;;;;;;32.48;25.62;99772.81;4440271;32;34036;-85
2022/08/05 07:57:05;;;;;;;3.28;1.80;;;;;;;32.21;25.50;99772.75;4441225;32;34135;-85
2022/08/05 07:59:53;;;;;;;3.30;2.00;;;;;;;32.41;26.16;99769.22;4431708;32;33544;-86
2022/08/05 08:02:24;;;;;;;7.65;1.95;;;;;;;32.63;25.82;99774.25;4439622;32;34000;-85
2022/08/05 08:05:00;;;;;;;5.18;2.28;;;;;;;32.71;25.63;99772.34;4439674;32;33939;-85
2022/08/05 08:07:30;;;;;;;8.95;2.33;;;;;;;32.65;26.10;99778.69;4440062;32;34812;-85
2022/08/05 08:10:20;;;;;;;3.80;2.12;;;;;;;32.36;27.01;99776.16;4442165;32;33526;-85
2022/08/05 08:12:50;;;;;;;8.50;2.35;;;;;;;32.88;25.31;99768.12;4440170;32;34113;-85
2022/08/05 08:15:18;;;;;;;9.38;2.05;;;;;;;32.67;26.52;99771.13;4427179;32;32355;-85
2022/08/05 08:18:09;;;;;;;5.95;2.58;;;;;;;33.33;25.53;99762.81;4427899;32;33298;-85
2022/08/05 08:20:41;;;;;;;7.07;2.45;;;;;;;33.32;24.90;99763.84;4440336;32;33923;-85
2022/08/05 08:23:31;;;;;;;4.50;2.20;;;;;;;33.26;24.79;99767.44;4415991;32;33725;-85
2022/08/05 08:26:19;;;;;;;4.07;2.20;;;;;;;33.79;24.58;99759.88;4441662;32;35042;-85
2022/08/05 08:29:02;;;;;;;2.35;2.05;;;;;;;33.63;23.88;99761.22;4440315;32;34097;-85
2022/08/05 08:31:54;;;;;;;4.68;2.65;;;;;;;33.58;25.12;99760.22;4441235;32;33238;-85
2022/08/05 08:34:25;;;;;;;5.05;2.00;;;;;;;33.85;25.11;99752.66;4453550;32;33633;-85
2022/08/05 08:37:01;;;;;;;2.55;2.12;;;;;;;33.70;23.98;99754.88;4440307;32;34669;-85
2022/08/05 08:39:33;;;;;;;5.30;2.28;;;;;;;33.76;23.77;99764.97;4426656;32;32638;-85
2022/08/05 08:42:09;;;;;;;3.17;2.60;;;;;;;34.34;23.46;99757.44;4426043;32;32815;-85
2022/08/05 08:44:57;;;;;;;5.82;2.75;;;;;;;34.02;23.76;99758.50;4428830;32;32970;-85
2022/08/05 08:47:51;;;;;;;2.50;2.30;;;;;;;33.78;24.98;99758.19;4438829;32;33110;-85
2022/08/05 08:50:43;;;;;;;5.87;2.70;;;;;;;33.54;23.79;99756.22;4428255;32;33187;-85
2022/08/05 08:53:37;;;;;;;2.45;2.25;;;;;;;33.73;23.87;99755.28;4442689;32;33571;-85
2022/08/05 08:56:12;;;;;;;2.50;1.83;;;;;;;34.09;25.90;99762.06;4427370;32;33403;-85
2022/08/05 08:58:41;;;;;;;2.75;2.12;;;;;;;34.44;23.55;99761.59;4439415;32;33905;-85
2022/08/05 09:01:19;;;;;;;3.28;1.80;;;;;;;34.16;23.78;99760.09;4439583;32;33817;-85
2022/08/05 09:03:52;;;;;;;4.18;1.92;;;;;;;34.63;25.41;99755.13;4439152;32;34010;-85
2022/08/05 09:06:27;;;;;;;2.45;1.75;;;;;;;34.63;23.42;99750.47;4427001;32;33128;-85
2022/08/05 09:09:04;;;;;;;3.47;1.92;;;;;;;34.63;24.37;99755.13;4439850;32;33512;-85
2022/08/05 09:11:43;;;;;;;2.33;2.12;;;;;;;35.13;22.11;99749.56;4443590;32;34237;-85
2022/08/05 09:14:22;;;;;;;4.77;2.27;;;;;;;35.13;24.25;99739.44;4428078;32;33195;-85
2022/08/05 09:17:14;;;;;;;3.47;1.83;;;;;;;35.59;24.23;99742.69;4441325;32;33639;-85
2022/08/05 09:20:04;;;;;;;8.68;2.22;;;;;;;35.20;22.74;99728.38;4441742;32;33596;-85
2022/08/05 09:23:01;;;;;;;3.30;2.22;;;;;;;34.96;22.70;99737.53;4439337;32;33298;-85
2022/08/05 09:25:40;;;;;;;8.55;3.35;;;;;;;35.50;23.12;99733.94;4436608;32;33515;-85
2022/08/05 09:28:29;;;;;;;4.55;2.40;;;;;;;35.64;22.21;99740.09;4444795;32;34793;-85
2022/08/05 09:31:09;;;;;;;4.30;2.30;;;;;;;35.84;21.51;99724.16;4428271;32;34073;-85
2022/08/05 09:34:10;;;;;;;4.32;2.35;;;;;;;35.83;23.27;99713.41;4417430;32;32622;-85
2022/08/05 09:36:51;;;;;;;8.27;1.87;;;;;;;35.82;23.54;99715.34;4410939;32;33134;-85
2022/08/05 09:39:37;;;;;;;4.93;1.87;;;;;;;35.65;22.57;99715.12;4418841;32;33596;-85
2022/08/05 09:42:22;;;;;;;4.60;1.80;;;;;;;36.32;23.51;99709.50;4422794;32;33857;-85
2022/08/05 09:45:06;;;;;;;2.65;1.73;;;;;;;35.90;22.30;99711.44;4408442;32;34142;-85
2022/08/05 09:47:56;;;;;;;3.87;1.80;;;;;;;36.12;21.34;99708.97;4395734;32;32907;-84
2022/08/05 09:50:36;;;;;;;5.80;1.80;;;;;;;36.72;21.05;99706.06;4410218;32;34010;-85
2022/08/05 09:53:20;;;;;;;7.95;2.20;;;;;;;37.26;21.76;99697.63;4409857;32;34581;-85
2022/08/05 09:55:59;;;;;;;6.95;2.62;;;;;;;36.80;20.83;99705.72;4399844;32;31815;-86
2022/08/05 09:58:37;;;;;;;6.80;2.10;;;;;;;36.84;20.29;99701.41;4413134;32;33847;-85
2022/08/05 10:01:12;;;;;;;3.22;1.90;;;;;;;36.27;22.25;99690.13;4414118;32;33061;-86
2022/08/05 10:04:05;;;;;;;16.65;3.15;;;;;;;36.33;21.07;99685.59;4412287;32;33436;-85
2022/08/05 10:06:54;;;;;;;13.25;2.78;;;;;;;36.04;22.06;99690.09;4399591;32;33027;-85
2022/08/05 10:09:29;;;;;;;1.95;1.75;;;;;;;36.06;20.90;99683.28;4410900;32;33716;-85
2022/08/05 10:12:11;;;;;;;3.80;1.95;;;;;;;37.13;19.88;99680.31;4422042;32;34056;-84
2022/08/05 10:15:17;;;;;;;3.17;2.90;;;;;;;36.96;19.84;99686.81;4422584;32;34557;-85
2022/08/05 10:18:18;;;;;;;5.65;2.17;;;;;;;37.10;19.29;99682.72;4422814;32;33048;-85
2022/08/05 10:21:01;;;;;;;8.57;2.10;;;;;;;37.54;20.19;99672.03;4422300;32;33192;-85
2022/08/05 10:23:39;;;;;;;2.83;2.47;;;;;;;37.50;19.54;99668.09;4422447;32;33873;-85
2022/08/05 10:26:14;;;;;;;3.37;1.87;;;;;;;37.25;19.78;99668.44;4406268;32;33960;-85
2022/08/05 10:28:46;;;;;;;2.95;2.00;;;;;;;37.74;21.38;99661.41;4412994;32;33270;-85
2022/08/05 10:31:27;;;;;;;6.57;2.85;;;;;;;37.45;20.86;99654.25;4395145;32;34297;-85
2022/08/05 10:34:16;;;;;;;3.87;2.20;;;;;;;37.61;19.00;99656.22;4399428;32;33194;-85
2022/08/05 10:36:55;;;;;;;5.25;2.08;;;;;;;37.16;20.47;99651.44;4425980;32;33300;-85
2022/08/05 10:39:29;;;;;;;3.87;2.35;;;;;;;37.05;22.08;99653.16;4440811;32;33391;-85
2022/08/05 10:42:23;;;;;;;4.62;2.10;;;;;;;37.50;19.45;99654.34;4441711;32;33780;-85
2022/08/05 10:45:04;;;;;;;6.93;2.17;;;;;;;37.64;19.24;99647.44;4441919;32;34595;-85
2022/08/05 10:47:55;;;;;;;1.90;1.80;;;;;;;37.50;21.33;99643.31;4443266;32;33511;-85
2022/08/05 10:50:57;;;;;;;4.35;2.00;;;;;;;37.50;19.36;99646.91;4437652;32;33670;-85
2022/08/05 10:53:36;;;;;;;4.43;2.67;;;;;;;37.77;20.42;99647.12;4451835;32;34491;-85
2022/08/05 10:56:15;;;;;;;3.55;2.05;;;;;;;37.76;19.22;99647.38;4453644;32;33916;-84
2022/08/05 10:58:54;;;;;;;3.20;2.20;;;;;;;37.56;18.29;99637.69;4435499;32;34489;-85
2022/08/05 11:04:29;;;;;;;3.67;2.37;;;;;;;37.86;18.77;99636.56;4441016;32;33255;-85
2022/08/05 11:07:05;;;;;;;4.15;2.30;;;;;;;38.08;17.20;99633.91;4440283;32;33548;-85
2022/08/05 11:09:43;;;;;;;4.25;2.10;;;;;;;38.22;17.30;99623.34;4428777;32;33079;-85
2022/08/05 11:12:39;;;;;;;4.65;1.90;;;;;;;37.40;22.69;99627.44;4430984;32;33318;-85
2022/08/05 11:15:33;;;;;;;2.25;2.10;;;;;;;37.63;18.64;99627.31;4437950;32;32912;-85
2022/08/05 11:18:27;;;;;;;4.85;1.90;;;;;;;37.87;18.40;99628.03;4429167;32;33379;-85
2022/08/05 11:21:04;;;;;;;4.30;1.98;;;;;;;37.52;18.08;99635.66;4439782;32;34018;-85
2022/08/05 11:23:52;;;;;;;3.83;2.08;;;;;;;38.01;18.08;99623.03;4441436;32;33415;-85
2022/08/05 11:26:50;;;;;;;4.62;1.90;;;;;;;37.92;18.06;99622.63;4418543;32;33791;-85
2022/08/05 11:29:40;;;;;;;2.72;1.90;;;;;;;37.84;19.80;99628.56;4435650;32;34180;-85
2022/08/05 11:32:24;;;;;;;3.10;2.22;;;;;;;37.57;20.08;99608.22;4440617;32;33534;-85
2022/08/05 11:35:06;;;;;;;3.50;2.00;;;;;;;37.52;20.25;99622.72;4452621;32;35139;-85
2022/08/05 11:37:53;;;;;;;2.58;2.37;;;;;;;37.88;19.54;99621.44;4437838;32;33997;-85
2022/08/05 11:40:58;;;;;;;2.30;2.10;;;;;;;38.18;18.55;99621.13;4429626;32;32310;-85
2022/08/05 11:44:02;;;;;;;7.15;2.37;;;;;;;38.01;18.94;99624.97;4439845;32;34425;-85
2022/08/05 11:46:47;;;;;;;5.55;2.40;;;;;;;38.27;17.54;99615.16;4451854;32;33046;-85
2022/08/05 11:49:55;;;;;;;2.85;2.17;;;;;;;38.21;18.39;99611.47;4443873;32;34643;-85
2022/08/05 11:52:28;;;;;;;2.37;1.90;;;;;;;37.90;18.92;99624.78;4426978;32;33584;-85
2022/08/05 11:55:00;;;;;;;4.75;2.00;;;;;;;38.17;17.22;99622.22;4441212;32;34136;-85
2022/08/05 11:57:38;;;;;;;2.60;2.20;;;;;;;38.08;18.79;99622.88;4440938;32;33486;-85
2022/08/05 12:00:29;;;;;;;2.78;1.60;;;;;;;38.35;17.44;99617.50;4440583;32;33694;-85
2022/08/05 12:03:21;;;;;;;3.45;2.33;;;;;;;38.67;18.42;99617.69;4438763;32;33940;-86
2022/08/05 12:06:00;;;;;;;2.30;1.98;;;;;;;38.79;16.99;99612.06;4438452;32;33638;-85
2022/08/05 12:08:29;;;;;;;2.20;1.90;;;;;;;38.74;17.51;99618.31;4424797;32;33861;-86
2022/08/05 12:11:02;;;;;;;3.08;2.58;;;;;;;38.63;17.31;99608.25;4440497;32;33494;-85
2022/08/05 12:13:36;;;;;;;4.93;2.10;;;;;;;38.32;17.29;99613.34;4427675;32;32665;-85
2022/08/05 12:16:18;;;;;;;2.10;2.00;;;;;;;38.43;17.59;99606.88;4453544;32;33705;-85
2022/08/05 12:18:48;;;;;;;2.97;2.17;;;;;;;38.43;17.00;99604.13;4439527;32;34293;-85
2022/08/05 12:24:16;;;;;;;3.58;2.08;;;;;;;38.97;16.96;99602.63;4453479;32;34756;-85
2022/08/05 12:26:48;;;;;;;3.75;2.30;;;;;;;38.78;17.04;99599.38;4449098;32;33574;-85
2022/08/05 12:29:26;;;;;;;2.17;1.98;;;;;;;38.67;18.40;99593.69;4439456;32;32908;-85
2022/08/05 12:32:06;;;;;;;4.70;2.33;;;;;;;38.74;17.84;99603.69;4441456;32;33960;-84
2022/08/05 12:34:38;;;;;;;3.53;2.08;;;;;;;38.87;17.78;99590.37;4436078;32;34554;-84
2022/08/05 12:39:51;;;;;;;3.87;1.95;;;;;;;38.46;17.24;99590.91;4434479;32;34183;-85
2022/08/05 12:42:36;;;;;;;3.40;2.00;;;;;;;38.75;16.96;99584.19;4419391;32;34577;-85
2022/08/05 12:45:17;;;;;;;5.93;2.40;;;;;;;38.60;17.65;99587.53;4412262;32;34026;-85
2022/08/05 12:47:53;;;;;;;6.82;1.95;;;;;;;38.74;18.58;99593.50;4437107;32;34250;-85
2022/08/05 12:51:16;;;;;;;2.58;2.37;;;;;;;38.90;19.54;99589.03;4420109;32;33174;-85